createdAt,value
2017-06-28T00:00:50.462Z,1006.75
2017-06-28T00:01:57.693Z,1006.81
2017-06-28T00:03:00.392Z,1006.82
2017-06-28T00:04:03.063Z,1006.78
2017-06-28T00:05:05.537Z,1006.84
2017-06-28T00:06:08.212Z,1006.81
2017-06-28T00:07:10.807Z,1006.82
2017-06-28T00:08:13.323Z,1006.84
2017-06-28T00:09:15.855Z,1006.84
2017-06-28T00:10:18.357Z,1006.84
2017-06-28T00:11:20.891Z,1006.89
2017-06-28T00:12:23.418Z,1006.90
2017-06-28T00:13:26.035Z,1006.89
2017-06-28T00:14:28.639Z,1006.90
2017-06-28T00:15:31.245Z,1006.91
2017-06-28T00:16:33.935Z,1006.92
2017-06-28T00:17:36.612Z,1006.92
2017-06-28T00:18:39.315Z,1006.96
2017-06-28T00:19:41.994Z,1006.96
2017-06-28T00:20:44.586Z,1007.00
2017-06-28T00:21:47.191Z,1007.01
2017-06-28T00:22:49.874Z,1006.98
2017-06-28T00:23:52.461Z,1007.03
2017-06-28T00:24:55.151Z,1007.00
2017-06-28T00:25:57.742Z,1007.02
2017-06-28T00:27:00.348Z,1007.03
2017-06-28T00:28:02.976Z,1007.03
2017-06-28T00:29:05.563Z,1007.01
2017-06-28T00:30:08.153Z,1007.01
2017-06-28T00:31:10.824Z,1007.05
2017-06-28T00:32:13.478Z,1007.01
2017-06-28T00:33:16.010Z,1007.04
2017-06-28T00:34:18.669Z,1007.09
2017-06-28T00:35:21.205Z,1007.06
2017-06-28T00:36:23.871Z,1007.09
2017-06-28T00:37:26.488Z,1007.11
2017-06-28T00:38:29.109Z,1007.15
2017-06-28T00:39:31.637Z,1007.15
2017-06-28T00:40:34.131Z,1007.13
2017-06-28T00:41:36.623Z,1007.14
2017-06-28T00:42:39.117Z,1007.15
2017-06-28T00:43:41.678Z,1007.14
2017-06-28T00:44:44.883Z,1007.15
2017-06-28T00:45:47.593Z,1007.14
2017-06-28T00:46:50.275Z,1007.15
2017-06-28T00:47:52.967Z,1007.18
2017-06-28T00:48:55.661Z,1007.23
2017-06-28T00:49:58.245Z,1007.21
2017-06-28T00:51:00.945Z,1007.23
2017-06-28T00:52:03.529Z,1007.26
2017-06-28T00:53:06.117Z,1007.23
2017-06-28T00:54:08.813Z,1007.23
2017-06-28T00:55:11.497Z,1007.26
2017-06-28T00:56:14.171Z,1007.27
2017-06-28T00:57:16.876Z,1007.26
2017-06-28T00:58:19.445Z,1007.28
2017-06-28T00:59:22.057Z,1007.31
2017-06-28T01:00:26.677Z,1007.28
2017-06-28T01:01:33.099Z,1007.27
2017-06-28T01:02:35.621Z,1007.25
2017-06-28T01:03:38.194Z,1007.23
2017-06-28T01:04:40.889Z,1007.30
2017-06-28T01:05:43.602Z,1007.26
2017-06-28T01:06:47.635Z,1007.26
2017-06-28T01:07:50.154Z,1007.25
2017-06-28T01:08:52.740Z,1007.24
2017-06-28T01:09:55.227Z,1007.28
2017-06-28T01:10:57.818Z,1007.23
2017-06-28T01:12:00.417Z,1007.25
2017-06-28T01:13:03.071Z,1007.23
2017-06-28T01:14:05.561Z,1007.23
2017-06-28T01:15:08.251Z,1007.25
2017-06-28T01:16:12.995Z,1007.29
2017-06-28T01:17:17.490Z,1007.28
2017-06-28T01:18:21.822Z,1007.29
2017-06-28T01:19:24.350Z,1007.35
2017-06-28T01:20:26.835Z,1007.34
2017-06-28T01:21:29.416Z,1007.34
2017-06-28T01:22:31.912Z,1007.38
2017-06-28T01:23:36.099Z,1007.31
2017-06-28T01:24:38.471Z,1007.31
2017-06-28T01:25:41.094Z,1007.35
2017-06-28T01:26:43.650Z,1007.38
2017-06-28T01:27:46.253Z,1007.32
2017-06-28T01:28:48.937Z,1007.33
2017-06-28T01:29:51.511Z,1007.37
2017-06-28T01:30:54.132Z,1007.41
2017-06-28T01:31:56.805Z,1007.40
2017-06-28T01:32:59.460Z,1007.40
2017-06-28T01:34:02.137Z,1007.38
2017-06-28T01:35:04.816Z,1007.40
2017-06-28T01:36:07.504Z,1007.37
2017-06-28T01:37:10.102Z,1007.43
2017-06-28T01:38:12.786Z,1007.42
2017-06-28T01:39:15.464Z,1007.46
2017-06-28T01:40:18.141Z,1007.46
2017-06-28T01:41:20.814Z,1007.47
2017-06-28T01:42:23.483Z,1007.45
2017-06-28T01:43:26.167Z,1007.43
2017-06-28T01:44:28.681Z,1007.46
2017-06-28T01:45:31.285Z,1007.46
2017-06-28T01:46:33.875Z,1007.46
2017-06-28T01:47:36.475Z,1007.44
2017-06-28T01:48:39.073Z,1007.48
2017-06-28T01:49:43.587Z,1007.50
2017-06-28T01:50:46.303Z,1007.52
2017-06-28T01:51:48.860Z,1007.49
2017-06-28T01:52:51.445Z,1007.51
2017-06-28T01:53:54.025Z,1007.51
2017-06-28T01:54:56.654Z,1007.50
2017-06-28T01:55:59.171Z,1007.47
2017-06-28T01:57:01.838Z,1007.54
2017-06-28T01:58:04.427Z,1007.52
2017-06-28T01:59:07.115Z,1007.52
2017-06-28T02:00:12.672Z,1007.54
2017-06-28T02:01:20.678Z,1007.53
2017-06-28T02:02:23.249Z,1007.53
2017-06-28T02:03:25.860Z,1007.55
2017-06-28T02:04:28.442Z,1007.58
2017-06-28T02:05:31.129Z,1007.58
2017-06-28T02:06:33.805Z,1007.58
2017-06-28T02:07:36.493Z,1007.60
2017-06-28T02:08:39.158Z,1007.60
2017-06-28T02:09:41.872Z,1007.55
2017-06-28T02:10:44.486Z,1007.62
2017-06-28T02:11:47.068Z,1007.56
2017-06-28T02:12:49.661Z,1007.53
2017-06-28T02:13:52.358Z,1007.58
2017-06-28T02:14:54.860Z,1007.57
2017-06-28T02:15:57.347Z,1007.58
2017-06-28T02:16:59.983Z,1007.61
2017-06-28T02:18:02.684Z,1007.63
2017-06-28T02:19:05.357Z,1007.59
2017-06-28T02:20:08.045Z,1007.61
2017-06-28T02:21:10.707Z,1007.64
2017-06-28T02:22:13.332Z,1007.66
2017-06-28T02:23:15.855Z,1007.63
2017-06-28T02:24:18.443Z,1007.61
2017-06-28T02:25:20.964Z,1007.59
2017-06-28T02:26:23.443Z,1007.62
2017-06-28T02:27:25.933Z,1007.68
2017-06-28T02:28:28.450Z,1007.70
2017-06-28T02:29:31.042Z,1007.68
2017-06-28T02:30:33.606Z,1007.74
2017-06-28T02:31:36.262Z,1007.78
2017-06-28T02:32:38.780Z,1007.77
2017-06-28T02:33:41.332Z,1007.73
2017-06-28T02:34:44.060Z,1007.77
2017-06-28T02:35:46.752Z,1007.81
2017-06-28T02:36:49.422Z,1007.81
2017-06-28T02:37:52.098Z,1007.79
2017-06-28T02:38:54.682Z,1007.84
2017-06-28T02:39:57.204Z,1007.89
2017-06-28T02:40:59.789Z,1007.89
2017-06-28T02:42:02.274Z,1007.87
2017-06-28T02:43:04.767Z,1007.92
2017-06-28T02:44:07.401Z,1007.92
2017-06-28T02:45:10.016Z,1007.90
2017-06-28T02:46:12.694Z,1007.89
2017-06-28T02:47:15.380Z,1007.89
2017-06-28T02:48:18.003Z,1007.92
2017-06-28T02:49:20.547Z,1007.90
2017-06-28T02:50:23.117Z,1007.88
2017-06-28T02:51:25.704Z,1007.87
2017-06-28T02:52:28.359Z,1007.89
2017-06-28T02:53:30.938Z,1007.89
2017-06-28T02:54:33.528Z,1007.92
2017-06-28T02:55:36.208Z,1007.94
2017-06-28T02:56:38.887Z,1007.92
2017-06-28T02:57:41.549Z,1007.98
2017-06-28T02:58:44.238Z,1007.93
2017-06-28T02:59:46.810Z,1007.94
2017-06-28T03:00:51.481Z,1007.93
2017-06-28T03:01:57.980Z,1007.95
2017-06-28T03:03:00.369Z,1007.97
2017-06-28T03:04:03.050Z,1008.00
2017-06-28T03:05:05.779Z,1008.00
2017-06-28T03:06:08.463Z,1008.03
2017-06-28T03:07:11.150Z,1008.00
2017-06-28T03:08:13.737Z,1007.98
2017-06-28T03:09:16.251Z,1007.97
2017-06-28T03:10:18.905Z,1007.97
2017-06-28T03:11:21.366Z,1007.95
2017-06-28T03:12:24.045Z,1007.99
2017-06-28T03:13:26.693Z,1007.93
2017-06-28T03:14:29.219Z,1007.95
2017-06-28T03:15:31.716Z,1007.90
2017-06-28T03:16:34.198Z,1007.93
2017-06-28T03:17:36.719Z,1007.93
2017-06-28T03:18:39.374Z,1007.93
2017-06-28T03:19:41.900Z,1007.89
2017-06-28T03:20:44.489Z,1007.92
2017-06-28T03:21:47.015Z,1007.93
2017-06-28T03:22:49.600Z,1007.98
2017-06-28T03:23:52.178Z,1007.97
2017-06-28T03:24:54.871Z,1008.06
2017-06-28T03:25:57.441Z,1008.01
2017-06-28T03:27:00.119Z,1008.03
2017-06-28T03:28:02.795Z,1008.04
2017-06-28T03:29:05.388Z,1008.09
2017-06-28T03:30:08.080Z,1008.06
2017-06-28T03:31:10.653Z,1008.05
2017-06-28T03:32:13.325Z,1008.03
2017-06-28T03:33:16.017Z,1008.08
2017-06-28T03:34:18.690Z,1008.05
2017-06-28T03:35:21.366Z,1008.05
2017-06-28T03:36:24.028Z,1008.07
2017-06-28T03:37:26.599Z,1008.09
2017-06-28T03:38:29.132Z,1008.13
2017-06-28T03:39:31.707Z,1008.11
2017-06-28T03:40:34.324Z,1008.15
2017-06-28T03:41:36.890Z,1008.13
2017-06-28T03:42:39.475Z,1008.12
2017-06-28T03:43:42.624Z,1008.17
2017-06-28T03:44:45.204Z,1008.11
2017-06-28T03:45:47.916Z,1008.16
2017-06-28T03:46:50.645Z,1008.16
2017-06-28T03:47:53.860Z,1008.16
2017-06-28T03:48:56.551Z,1008.18
2017-06-28T03:49:59.023Z,1008.22
2017-06-28T03:51:01.685Z,1008.20
2017-06-28T03:52:04.281Z,1008.16
2017-06-28T03:53:06.901Z,1008.17
2017-06-28T03:54:09.520Z,1008.20
2017-06-28T03:55:12.120Z,1008.16
2017-06-28T03:56:14.710Z,1008.19
2017-06-28T03:57:17.298Z,1008.22
2017-06-28T03:58:20.001Z,1008.18
2017-06-28T03:59:22.630Z,1008.19
2017-06-28T04:00:27.045Z,1008.20
2017-06-28T04:01:33.448Z,1008.16
2017-06-28T04:02:35.971Z,1008.14
2017-06-28T04:03:38.541Z,1008.28
2017-06-28T04:04:41.117Z,1008.25
2017-06-28T04:05:43.685Z,1008.32
2017-06-28T04:06:46.249Z,1008.25
2017-06-28T04:07:48.973Z,1008.27
2017-06-28T04:08:51.563Z,1008.30
2017-06-28T04:09:54.145Z,1008.33
2017-06-28T04:10:56.727Z,1008.33
2017-06-28T04:11:59.323Z,1008.34
2017-06-28T04:13:01.922Z,1008.29
2017-06-28T04:14:04.508Z,1008.28
2017-06-28T04:15:06.995Z,1008.29
2017-06-28T04:16:09.486Z,1008.27
2017-06-28T04:17:12.108Z,1008.28
2017-06-28T04:18:14.687Z,1008.24
2017-06-28T04:19:17.332Z,1008.25
2017-06-28T04:20:20.002Z,1008.22
2017-06-28T04:21:22.566Z,1008.22
2017-06-28T04:22:25.044Z,1008.22
2017-06-28T04:26:48.494Z,1008.28
2017-06-28T04:27:51.161Z,1008.28
2017-06-28T04:28:53.773Z,1008.31
2017-06-28T04:29:56.249Z,1008.25
2017-06-28T04:30:58.831Z,1008.31
2017-06-28T04:32:01.411Z,1008.27
2017-06-28T04:33:04.045Z,1008.29
2017-06-28T04:34:06.760Z,1008.28
2017-06-28T04:35:09.318Z,1008.29
2017-06-28T04:36:12.128Z,1008.29
2017-06-28T04:37:14.727Z,1008.34
2017-06-28T04:38:17.253Z,1008.30
2017-06-28T04:39:19.924Z,1008.33
2017-06-28T04:40:22.596Z,1008.35
2017-06-28T04:41:25.278Z,1008.39
2017-06-28T04:42:27.942Z,1008.36
2017-06-28T04:43:30.515Z,1008.38
2017-06-28T04:44:33.110Z,1008.41
2017-06-28T04:45:35.744Z,1008.40
2017-06-28T04:46:38.318Z,1008.39
2017-06-28T04:47:40.880Z,1008.38
2017-06-28T04:48:43.402Z,1008.44
2017-06-28T04:49:45.979Z,1008.46
2017-06-28T04:50:48.599Z,1008.43
2017-06-28T04:51:51.263Z,1008.49
2017-06-28T04:52:53.908Z,1008.41
2017-06-28T04:53:56.501Z,1008.42
2017-06-28T04:54:59.075Z,1008.44
2017-06-28T04:56:01.553Z,1008.50
2017-06-28T04:57:04.147Z,1008.46
2017-06-28T04:58:06.749Z,1008.48
2017-06-28T04:59:09.434Z,1008.44
2017-06-28T05:00:17.244Z,1008.45
2017-06-28T05:01:24.792Z,1008.45
2017-06-28T05:02:27.250Z,1008.49
2017-06-28T05:03:29.918Z,1008.43
2017-06-28T05:04:32.644Z,1008.43
2017-06-28T05:05:35.313Z,1008.44
2017-06-28T05:06:38.009Z,1008.50
2017-06-28T05:07:40.679Z,1008.53
2017-06-28T05:08:43.257Z,1008.53
2017-06-28T05:09:45.831Z,1008.57
2017-06-28T05:10:48.407Z,1008.58
2017-06-28T05:11:51.100Z,1008.57
2017-06-28T05:12:53.664Z,1008.60
2017-06-28T05:13:56.353Z,1008.57
2017-06-28T05:14:59.025Z,1008.69
2017-06-28T05:16:01.600Z,1008.67
2017-06-28T05:17:04.192Z,1008.62
2017-06-28T05:18:06.944Z,1008.68
2017-06-28T05:19:11.836Z,1008.70
2017-06-28T05:20:14.113Z,1008.69
2017-06-28T05:21:16.601Z,1008.66
2017-06-28T05:22:19.087Z,1008.72
2017-06-28T05:23:21.564Z,1008.74
2017-06-28T05:24:24.156Z,1008.68
2017-06-28T05:25:26.728Z,1008.74
2017-06-28T05:26:29.382Z,1008.75
2017-06-28T05:27:31.885Z,1008.76
2017-06-28T05:28:34.474Z,1008.77
2017-06-28T05:29:37.159Z,1008.76
2017-06-28T05:30:39.845Z,1008.78
2017-06-28T05:31:42.516Z,1008.82
2017-06-28T05:32:45.189Z,1008.82
2017-06-28T05:33:47.654Z,1008.82
2017-06-28T05:34:50.292Z,1008.84
2017-06-28T05:35:52.823Z,1008.79
2017-06-28T05:36:55.393Z,1008.81
2017-06-28T05:37:58.074Z,1008.82
2017-06-28T05:39:00.677Z,1008.81
2017-06-28T05:40:03.268Z,1008.88
2017-06-28T05:41:05.841Z,1008.85
2017-06-28T05:42:08.518Z,1008.89
2017-06-28T05:43:11.184Z,1008.88
2017-06-28T05:44:13.855Z,1008.93
2017-06-28T05:45:16.526Z,1008.92
2017-06-28T05:46:19.106Z,1008.91
2017-06-28T05:47:21.729Z,1008.95
2017-06-28T05:48:24.392Z,1008.98
2017-06-28T05:49:26.927Z,1008.90
2017-06-28T05:50:29.542Z,1008.91
2017-06-28T05:51:32.113Z,1008.92
2017-06-28T05:52:34.825Z,1008.95
2017-06-28T05:53:37.393Z,1009.04
2017-06-28T05:54:39.910Z,1008.99
2017-06-28T05:55:42.451Z,1009.02
2017-06-28T05:56:45.027Z,1009.04
2017-06-28T05:57:47.717Z,1009.07
2017-06-28T05:58:50.401Z,1009.16
2017-06-28T05:59:53.062Z,1009.10
2017-06-28T06:00:57.331Z,1009.17
2017-06-28T06:02:03.122Z,1009.15
2017-06-28T06:03:05.487Z,1009.21
2017-06-28T06:04:08.149Z,1009.18
2017-06-28T06:05:10.639Z,1009.22
2017-06-28T06:06:13.154Z,1009.21
2017-06-28T06:07:15.635Z,1009.14
2017-06-28T06:08:18.309Z,1009.21
2017-06-28T06:09:20.797Z,1009.22
2017-06-28T06:10:23.289Z,1009.21
2017-06-28T06:11:25.877Z,1009.20
2017-06-28T06:12:28.561Z,1009.23
2017-06-28T06:13:31.227Z,1009.18
2017-06-28T06:14:33.798Z,1009.19
2017-06-28T06:15:36.405Z,1009.18
2017-06-28T06:16:39.002Z,1009.20
2017-06-28T06:17:41.620Z,1009.25
2017-06-28T06:18:44.274Z,1009.24
2017-06-28T06:19:47.026Z,1009.28
2017-06-28T06:20:49.668Z,1009.29
2017-06-28T06:21:52.355Z,1009.24
2017-06-28T06:22:55.014Z,1009.25
2017-06-28T06:23:57.589Z,1009.28
2017-06-28T06:25:00.178Z,1009.38
2017-06-28T06:26:02.753Z,1009.34
2017-06-28T06:27:05.450Z,1009.27
2017-06-28T06:28:08.115Z,1009.33
2017-06-28T06:29:10.869Z,1009.34
2017-06-28T06:30:13.613Z,1009.28
2017-06-28T06:31:16.294Z,1009.35
2017-06-28T06:32:18.937Z,1009.35
2017-06-28T06:33:21.528Z,1009.35
2017-06-28T06:34:24.012Z,1009.36
2017-06-28T06:35:26.508Z,1009.34
2017-06-28T06:36:29.040Z,1009.34
2017-06-28T06:37:31.567Z,1009.33
2017-06-28T06:38:34.098Z,1009.37
2017-06-28T06:39:36.685Z,1009.44
2017-06-28T06:40:39.204Z,1009.52
2017-06-28T06:41:41.814Z,1009.53
2017-06-28T06:42:44.377Z,1009.52
2017-06-28T06:43:46.943Z,1009.50
2017-06-28T06:44:49.671Z,1009.56
2017-06-28T06:45:52.216Z,1009.48
2017-06-28T06:46:54.748Z,1009.49
2017-06-28T06:47:57.329Z,1009.54
2017-06-28T06:48:59.978Z,1009.57
2017-06-28T06:50:02.482Z,1009.57
2017-06-28T06:51:05.081Z,1009.59
2017-06-28T06:52:07.621Z,1009.53
2017-06-28T06:53:10.198Z,1009.57
2017-06-28T06:54:12.855Z,1009.70
2017-06-28T06:55:15.333Z,1009.55
2017-06-28T06:56:17.853Z,1009.52
2017-06-28T06:57:20.428Z,1009.69
2017-06-28T06:58:22.996Z,1009.58
2017-06-28T06:59:25.590Z,1009.63
2017-06-28T07:00:30.245Z,1009.61
2017-06-28T07:01:37.797Z,1009.73
2017-06-28T07:02:40.244Z,1009.54
2017-06-28T07:03:42.710Z,1009.57
2017-06-28T07:04:45.369Z,1009.67
2017-06-28T07:05:48.012Z,1009.68
2017-06-28T07:06:50.531Z,1009.60
2017-06-28T07:07:53.117Z,1009.66
2017-06-28T07:08:55.697Z,1009.68
2017-06-28T07:09:58.170Z,1009.59
2017-06-28T07:11:00.801Z,1009.64
2017-06-28T07:12:03.463Z,1009.73
2017-06-28T07:13:06.043Z,1009.69
2017-06-28T07:14:08.633Z,1009.68
2017-06-28T07:15:11.114Z,1009.71
2017-06-28T07:16:13.718Z,1009.70
2017-06-28T07:17:16.291Z,1009.71
2017-06-28T07:18:18.959Z,1009.71
2017-06-28T07:19:21.503Z,1009.83
2017-06-28T07:20:24.030Z,1009.71
2017-06-28T07:21:26.506Z,1009.70
2017-06-28T07:22:29.089Z,1009.72
2017-06-28T07:23:31.686Z,1009.80
2017-06-28T07:24:34.249Z,1009.71
2017-06-28T07:25:36.868Z,1009.69
2017-06-28T07:26:39.516Z,1009.75
2017-06-28T07:27:42.091Z,1009.77
2017-06-28T07:28:44.660Z,1009.81
2017-06-28T07:29:47.272Z,1009.79
2017-06-28T07:30:49.861Z,1009.79
2017-06-28T07:31:52.386Z,1009.81
2017-06-28T07:32:55.050Z,1009.83
2017-06-28T07:33:57.602Z,1009.80
2017-06-28T07:35:00.203Z,1009.81
2017-06-28T07:36:02.829Z,1009.82
2017-06-28T07:37:05.410Z,1009.84
2017-06-28T07:38:07.971Z,1009.83
2017-06-28T07:39:10.449Z,1009.90
2017-06-28T07:40:12.996Z,1009.89
2017-06-28T07:41:15.537Z,1009.91
2017-06-28T07:42:18.015Z,1009.93
2017-06-28T07:43:20.604Z,1009.89
2017-06-28T07:44:23.190Z,1009.91
2017-06-28T07:45:25.857Z,1009.92
2017-06-28T07:46:28.434Z,1009.88
2017-06-28T07:47:31.043Z,1009.93
2017-06-28T07:48:33.653Z,1009.90
2017-06-28T07:49:36.283Z,1009.90
2017-06-28T07:50:38.847Z,1009.92
2017-06-28T07:51:41.438Z,1009.88
2017-06-28T07:52:44.041Z,1009.88
2017-06-28T07:53:46.686Z,1009.88
2017-06-28T07:54:49.252Z,1009.95
2017-06-28T07:55:51.869Z,1009.92
2017-06-28T07:56:54.380Z,1009.96
2017-06-28T07:57:56.882Z,1009.94
2017-06-28T07:58:59.408Z,1009.93
2017-06-28T08:00:02.007Z,1009.95
2017-06-28T08:01:08.639Z,1009.99
2017-06-28T08:02:16.218Z,1009.96
2017-06-28T08:03:18.359Z,1010.04
2017-06-28T08:04:21.026Z,1009.95
2017-06-28T08:05:23.598Z,1009.99
2017-06-28T08:06:26.133Z,1009.92
2017-06-28T08:07:28.722Z,1009.92
2017-06-28T08:08:31.293Z,1009.93
2017-06-28T08:09:33.942Z,1009.97
2017-06-28T08:10:36.459Z,1009.99
2017-06-28T08:11:38.988Z,1009.99
2017-06-28T08:12:41.620Z,1010.05
2017-06-28T08:13:44.274Z,1009.98
2017-06-28T08:14:46.808Z,1009.99
2017-06-28T08:15:49.337Z,1010.10
2017-06-28T08:16:51.921Z,1010.06
2017-06-28T08:17:54.507Z,1010.05
2017-06-28T08:18:57.098Z,1010.08
2017-06-28T08:19:59.577Z,1010.08
2017-06-28T08:21:02.160Z,1010.08
2017-06-28T08:22:04.740Z,1010.10
2017-06-28T08:23:07.397Z,1010.11
2017-06-28T08:24:10.053Z,1010.15
2017-06-28T08:25:12.707Z,1010.16
2017-06-28T08:26:15.305Z,1010.08
2017-06-28T08:27:17.780Z,1010.09
2017-06-28T08:28:20.315Z,1010.16
2017-06-28T08:29:22.837Z,1010.10
2017-06-28T08:30:25.362Z,1010.04
2017-06-28T08:31:27.989Z,1010.10
2017-06-28T08:32:30.467Z,1010.12
2017-06-28T08:33:32.951Z,1010.20
2017-06-28T08:34:35.535Z,1010.12
2017-06-28T08:35:38.164Z,1010.13
2017-06-28T08:36:40.754Z,1010.21
2017-06-28T08:37:43.274Z,1010.18
2017-06-28T08:38:45.870Z,1010.09
2017-06-28T08:39:48.388Z,1010.28
2017-06-28T08:40:51.001Z,1010.21
2017-06-28T08:41:53.555Z,1010.24
2017-06-28T08:42:56.051Z,1010.16
2017-06-28T08:43:58.533Z,1010.28
2017-06-28T08:45:01.024Z,1010.23
2017-06-28T08:46:03.563Z,1010.25
2017-06-28T08:47:06.148Z,1010.22
2017-06-28T08:48:08.718Z,1010.21
2017-06-28T08:49:11.292Z,1010.22
2017-06-28T08:50:18.733Z,1010.17
2017-06-28T08:51:21.132Z,1010.19
2017-06-28T08:52:23.719Z,1010.22
2017-06-28T08:53:26.340Z,1010.24
2017-06-28T08:54:33.725Z,1010.26
2017-06-28T08:55:36.510Z,1010.24
2017-06-28T08:56:39.167Z,1010.29
2017-06-28T08:57:43.667Z,1010.28
2017-06-28T08:58:46.310Z,1010.29
2017-06-28T08:59:51.208Z,1010.26
2017-06-28T09:00:53.849Z,1010.31
2017-06-28T09:01:58.449Z,1010.28
2017-06-28T09:03:01.246Z,1010.42
2017-06-28T09:04:03.849Z,1010.32
2017-06-28T09:05:06.576Z,1010.35
2017-06-28T09:06:09.199Z,1010.35
2017-06-28T09:07:11.815Z,1010.41
2017-06-28T09:08:16.481Z,1010.39
2017-06-28T09:09:19.127Z,1010.42
2017-06-28T09:10:21.768Z,1010.42
2017-06-28T09:11:26.134Z,1010.44
2017-06-28T09:12:28.699Z,1010.46
2017-06-28T09:13:31.332Z,1010.46
2017-06-28T09:14:33.862Z,1010.48
2017-06-28T09:15:36.575Z,1010.52
2017-06-28T09:16:39.217Z,1010.56
2017-06-28T09:17:41.802Z,1010.57
2017-06-28T09:18:46.723Z,1010.59
2017-06-28T09:19:49.397Z,1010.59
2017-06-28T09:20:51.993Z,1010.51
2017-06-28T09:21:54.532Z,1010.53
2017-06-28T09:22:57.021Z,1010.56
2017-06-28T09:23:59.612Z,1010.52
2017-06-28T09:25:03.185Z,1010.55
2017-06-28T09:26:05.860Z,1010.56
2017-06-28T09:27:10.202Z,1010.58
2017-06-28T09:28:12.896Z,1010.60
2017-06-28T09:29:17.286Z,1010.57
2017-06-28T09:30:20.032Z,1010.60
2017-06-28T09:31:22.937Z,1010.63
2017-06-28T09:32:25.640Z,1010.59
2017-06-28T09:33:31.180Z,1010.62
2017-06-28T09:34:33.858Z,1010.61
2017-06-28T09:35:36.486Z,1010.72
2017-06-28T09:36:39.583Z,1010.64
2017-06-28T09:37:42.137Z,1010.67
2017-06-28T09:38:44.709Z,1010.65
2017-06-28T09:39:47.458Z,1010.69
2017-06-28T09:40:51.750Z,1010.74
2017-06-28T09:41:55.757Z,1010.72
2017-06-28T09:42:58.237Z,1010.74
2017-06-28T09:44:00.835Z,1010.76
2017-06-28T09:45:06.003Z,1010.77
2017-06-28T09:46:08.979Z,1010.80
2017-06-28T09:47:16.836Z,1010.79
2017-06-28T09:48:19.374Z,1010.79
2017-06-28T09:49:23.035Z,1010.80
2017-06-28T09:50:28.139Z,1010.74
2017-06-28T09:51:33.667Z,1010.79
2017-06-28T09:52:37.339Z,1010.85
2017-06-28T09:53:40.055Z,1010.83
2017-06-28T09:54:42.717Z,1010.90
2017-06-28T09:55:45.277Z,1010.85
2017-06-28T09:56:48.781Z,1010.89
2017-06-28T09:57:52.266Z,1010.94
2017-06-28T09:58:55.058Z,1010.89
2017-06-28T09:59:57.753Z,1010.93
2017-06-28T10:01:00.358Z,1010.93
2017-06-28T10:02:03.708Z,1010.90
2017-06-28T10:03:06.335Z,1010.89
2017-06-28T10:04:08.930Z,1010.93
2017-06-28T10:05:11.531Z,1010.93
2017-06-28T10:06:14.810Z,1010.88
2017-06-28T10:07:17.557Z,1010.92
2017-06-28T10:08:21.153Z,1010.93
2017-06-28T10:09:23.700Z,1010.93
2017-06-28T10:10:27.338Z,1010.93
2017-06-28T10:11:30.025Z,1010.89
2017-06-28T10:12:32.702Z,1010.95
2017-06-28T10:13:35.377Z,1010.93
2017-06-28T10:14:37.947Z,1010.93
2017-06-28T10:15:40.537Z,1010.97
2017-06-28T10:16:44.202Z,1010.95
2017-06-28T10:17:46.857Z,1010.93
2017-06-28T10:18:49.306Z,1010.96
2017-06-28T10:19:52.719Z,1010.95
2017-06-28T10:20:55.242Z,1010.93
2017-06-28T10:21:57.766Z,1010.92
2017-06-28T10:23:00.450Z,1011.00
2017-06-28T10:24:03.147Z,1010.98
2017-06-28T10:25:05.826Z,1010.99
2017-06-28T10:26:08.520Z,1011.05
2017-06-28T10:27:11.096Z,1011.01
2017-06-28T10:28:13.722Z,1011.00
2017-06-28T10:29:16.416Z,1010.98
2017-06-28T10:30:23.260Z,1011.00
2017-06-28T10:31:26.625Z,1011.02
2017-06-28T10:32:32.369Z,1011.01
2017-06-28T10:33:34.986Z,1011.06
2017-06-28T10:34:37.539Z,1011.08
2017-06-28T10:35:42.942Z,1011.07
2017-06-28T10:36:45.532Z,1011.06
2017-06-28T10:37:48.108Z,1011.02
2017-06-28T10:38:51.620Z,1011.11
2017-06-28T10:39:54.144Z,1011.06
2017-06-28T10:40:56.759Z,1011.11
2017-06-28T10:42:04.532Z,1011.12
2017-06-28T10:43:07.173Z,1011.16
2017-06-28T10:44:09.611Z,1011.10
2017-06-28T10:45:13.981Z,1011.09
2017-06-28T10:46:16.919Z,1011.12
2017-06-28T10:47:19.464Z,1011.10
2017-06-28T10:48:22.746Z,1011.20
2017-06-28T10:49:25.315Z,1011.16
2017-06-28T10:50:28.074Z,1011.14
2017-06-28T10:51:30.761Z,1011.09
2017-06-28T10:52:34.222Z,1011.21
2017-06-28T10:53:37.092Z,1011.09
2017-06-28T10:54:39.803Z,1011.18
2017-06-28T10:55:43.312Z,1011.16
2017-06-28T10:56:45.892Z,1011.19
2017-06-28T10:57:49.266Z,1011.19
2017-06-28T10:58:51.873Z,1011.21
2017-06-28T10:59:54.467Z,1011.20
2017-06-28T11:00:57.222Z,1011.22
2017-06-28T11:01:59.911Z,1011.16
2017-06-28T11:03:02.626Z,1011.15
2017-06-28T11:04:05.315Z,1011.18
2017-06-28T11:05:07.893Z,1011.18
2017-06-28T11:06:10.480Z,1011.18
2017-06-28T11:07:13.071Z,1011.29
2017-06-28T11:08:15.657Z,1011.32
2017-06-28T11:09:18.232Z,1011.30
2017-06-28T11:10:23.347Z,1011.29
2017-06-28T11:11:25.830Z,1011.31
2017-06-28T11:12:28.553Z,1011.33
2017-06-28T11:13:31.206Z,1011.34
2017-06-28T11:14:36.742Z,1011.30
2017-06-28T11:15:39.415Z,1011.29
2017-06-28T11:16:42.164Z,1011.29
2017-06-28T11:17:44.880Z,1011.30
2017-06-28T11:18:47.487Z,1011.35
2017-06-28T11:19:50.062Z,1011.41
2017-06-28T11:20:53.686Z,1011.34
2017-06-28T11:21:56.452Z,1011.42
2017-06-28T11:22:59.130Z,1011.46
2017-06-28T11:24:01.862Z,1011.35
2017-06-28T11:25:04.538Z,1011.39
2017-06-28T11:26:08.694Z,1011.39
2017-06-28T11:27:11.536Z,1011.45
2017-06-28T11:28:14.039Z,1011.40
2017-06-28T11:29:16.626Z,1011.39
2017-06-28T11:30:19.241Z,1011.40
2017-06-28T11:31:21.763Z,1011.38
2017-06-28T11:32:25.988Z,1011.40
2017-06-28T11:33:29.961Z,1011.43
2017-06-28T11:34:34.839Z,1011.41
2017-06-28T11:35:38.520Z,1011.44
2017-06-28T11:36:41.170Z,1011.52
2017-06-28T11:37:43.745Z,1011.49
2017-06-28T11:38:49.323Z,1011.50
2017-06-28T11:39:51.961Z,1011.47
2017-06-28T11:40:56.269Z,1011.47
2017-06-28T11:42:01.566Z,1011.48
2017-06-28T11:43:05.865Z,1011.44
2017-06-28T11:44:10.183Z,1011.47
2017-06-28T11:45:13.326Z,1011.42
2017-06-28T11:46:16.724Z,1011.42
2017-06-28T11:47:20.420Z,1011.49
2017-06-28T11:48:23.127Z,1011.51
2017-06-28T11:49:26.842Z,1011.49
2017-06-28T11:50:29.630Z,1011.46
2017-06-28T11:51:32.364Z,1011.50
2017-06-28T11:52:34.982Z,1011.44
2017-06-28T11:53:41.232Z,1011.45
2017-06-28T11:54:45.537Z,1011.48
2017-06-28T11:55:49.290Z,1011.54
2017-06-28T11:56:51.817Z,1011.50
2017-06-28T11:57:56.065Z,1011.52
2017-06-28T11:58:58.822Z,1011.54
2017-06-28T12:00:01.569Z,1011.49
2017-06-28T12:01:05.633Z,1011.49
2017-06-28T12:02:09.592Z,1011.52
2017-06-28T12:03:12.304Z,1011.57
2017-06-28T12:04:16.157Z,1011.54
2017-06-28T12:05:18.721Z,1011.60
2017-06-28T12:06:21.287Z,1011.63
2017-06-28T12:07:23.874Z,1011.63
2017-06-28T12:08:26.464Z,1011.60
2017-06-28T12:09:29.142Z,1011.52
2017-06-28T12:10:31.728Z,1011.59
2017-06-28T12:11:34.401Z,1011.58
2017-06-28T12:12:42.140Z,1011.58
2017-06-28T12:13:44.814Z,1011.57
2017-06-28T12:14:47.490Z,1011.56
2017-06-28T12:15:50.183Z,1011.63
2017-06-28T12:16:52.855Z,1011.64
2017-06-28T12:17:55.428Z,1011.57
2017-06-28T12:18:58.018Z,1011.59
2017-06-28T12:20:00.637Z,1011.57
2017-06-28T12:21:03.131Z,1011.65
2017-06-28T12:22:05.728Z,1011.61
2017-06-28T12:23:08.353Z,1011.58
2017-06-28T12:24:10.895Z,1011.64
2017-06-28T12:25:13.585Z,1011.57
2017-06-28T12:26:17.960Z,1011.57
2017-06-28T12:27:23.076Z,1011.59
2017-06-28T12:28:25.740Z,1011.59
2017-06-28T12:29:28.402Z,1011.63
2017-06-28T12:30:30.940Z,1011.64
2017-06-28T12:31:33.568Z,1011.64
2017-06-28T12:32:36.172Z,1011.65
2017-06-28T12:33:40.725Z,1011.68
2017-06-28T12:34:43.372Z,1011.62
2017-06-28T12:35:45.875Z,1011.66
2017-06-28T12:36:48.408Z,1011.59
2017-06-28T12:37:52.853Z,1011.65
2017-06-28T12:38:55.391Z,1011.58
2017-06-28T12:39:58.161Z,1011.66
2017-06-28T12:41:00.842Z,1011.73
2017-06-28T12:42:05.179Z,1011.68
2017-06-28T12:43:07.599Z,1011.76
2017-06-28T12:44:10.320Z,1011.75